Terminal Aerodrome Forecast
Issued by NWS

Home | Current Version | Previous Version | Text Only | Print | Product List | Glossary On
Versions: 1 2 3 4 5 6 7 8 9 10 11 12 13 14 15 16 17 18 19 20 21 22 23 24 25 26 27 28 29 30
000
FTAK31 PAFA 142320
TAFASC
TAF
PASC 142320Z 1500/1524 09025G35KT 1/2SM BLSN BKN006
      TEMPO 1500/1503 1/4SM -SHSN BLSN
     FM150600 08025G35KT 1/2SM BLSN SCT015 BKN050
     FM151500 08022G30KT 1 1/2SM BLSN SCT015 BKN050=

USA.gov is the U.S. government's official web portal to all federal, state and local government web resources and services.